sensor_id;sensor_type;location;lat;lon;timestamp;pressure;altitude;pressure_sealevel;temperature;humidity
29045;BME280;16133;49.486;12.176;2023-05-14T00:00:11;97396.59;;;6.57;100.00
29045;BME280;16133;49.486;12.176;2023-05-14T00:02:37;97401.47;;;6.52;100.00
29045;BME280;16133;49.486;12.176;2023-05-14T00:05:03;97403.91;;;6.46;100.00
29045;BME280;16133;49.486;12.176;2023-05-14T00:07:28;97395.44;;;6.34;100.00
29045;BME280;16133;49.486;12.176;2023-05-14T00:09:55;97400.56;;;6.36;100.00
29045;BME280;16133;49.486;12.176;2023-05-14T00:12:21;97390.34;;;6.41;100.00
29045;BME280;16133;49.486;12.176;2023-05-14T00:14:46;97372.22;;;6.38;100.00
29045;BME280;16133;49.486;12.176;2023-05-14T00:17:12;97377.28;;;6.31;100.00
29045;BME280;16133;49.486;12.176;2023-05-14T00:19:37;97375.25;;;6.25;100.00
29045;BME280;16133;49.486;12.176;2023-05-14T00:22:06;97373.75;;;6.22;100.00
29045;BME280;16133;49.486;12.176;2023-05-14T00:24:32;97368.69;;;6.29;100.00
29045;BME280;16133;49.486;12.176;2023-05-14T00:26:58;97350.25;;;6.29;100.00
29045;BME280;16133;49.486;12.176;2023-05-14T00:29:23;97338.88;;;6.29;100.00
29045;BME280;16133;49.486;12.176;2023-05-14T00:31:48;97329.66;;;6.24;100.00
29045;BME280;16133;49.486;12.176;2023-05-14T00:34:14;97321.75;;;6.24;100.00
29045;BME280;16133;49.486;12.176;2023-05-14T00:36:39;97326.97;;;6.16;100.00
29045;BME280;16133;49.486;12.176;2023-05-14T00:39:05;97330.38;;;6.09;100.00
29045;BME280;16133;49.486;12.176;2023-05-14T00:41:30;97332.78;;;6.02;100.00
29045;BME280;16133;49.486;12.176;2023-05-14T00:43:56;97340.00;;;6.00;100.00
29045;BME280;16133;49.486;12.176;2023-05-14T00:46:21;97333.72;;;5.93;100.00
29045;BME280;16133;49.486;12.176;2023-05-14T00:48:46;97308.34;;;5.74;100.00
29045;BME280;16133;49.486;12.176;2023-05-14T00:51:12;97328.78;;;5.81;100.00
29045;BME280;16133;49.486;12.176;2023-05-14T00:53:38;97331.03;;;5.75;100.00
29045;BME280;16133;49.486;12.176;2023-05-14T00:56:04;97328.56;;;5.74;100.00
29045;BME280;16133;49.486;12.176;2023-05-14T00:58:30;97327.75;;;5.73;100.00
29045;BME280;16133;49.486;12.176;2023-05-14T01:00:59;97318.34;;;5.71;100.00
29045;BME280;16133;49.486;12.176;2023-05-14T01:03:24;97311.44;;;5.70;100.00
29045;BME280;16133;49.486;12.176;2023-05-14T01:08:33;97304.66;;;5.67;100.00
29045;BME280;16133;49.486;12.176;2023-05-14T01:16:27;97277.16;;;5.62;100.00
29045;BME280;16133;49.486;12.176;2023-05-14T01:18:54;97273.53;;;5.63;100.00
29045;BME280;16133;49.486;12.176;2023-05-14T01:21:36;97257.22;;;5.59;100.00
29045;BME280;16133;49.486;12.176;2023-05-14T01:24:03;97259.69;;;5.61;100.00
29045;BME280;16133;49.486;12.176;2023-05-14T01:26:29;97254.88;;;5.56;100.00
29045;BME280;16133;49.486;12.176;2023-05-14T01:29:12;97266.16;;;5.49;100.00
29045;BME280;16133;49.486;12.176;2023-05-14T01:31:42;97272.69;;;5.45;100.00
29045;BME280;16133;49.486;12.176;2023-05-14T01:34:10;97272.56;;;5.46;100.00
29045;BME280;16133;49.486;12.176;2023-05-14T01:36:37;97270.06;;;5.45;100.00
29045;BME280;16133;49.486;12.176;2023-05-14T01:39:04;97261.81;;;5.40;100.00
29045;BME280;16133;49.486;12.176;2023-05-14T01:41:34;97272.63;;;5.37;100.00
29045;BME280;16133;49.486;12.176;2023-05-14T01:44:00;97268.81;;;5.31;100.00
29045;BME280;16133;49.486;12.176;2023-05-14T01:46:33;97275.66;;;5.24;100.00
29045;BME280;16133;49.486;12.176;2023-05-14T01:49:01;97286.47;;;5.21;100.00
29045;BME280;16133;49.486;12.176;2023-05-14T01:51:26;97281.06;;;5.22;100.00
29045;BME280;16133;49.486;12.176;2023-05-14T01:53:52;97272.81;;;5.17;100.00
29045;BME280;16133;49.486;12.176;2023-05-14T01:56:19;97268.81;;;5.13;100.00
29045;BME280;16133;49.486;12.176;2023-05-14T01:58:46;97270.09;;;5.09;100.00
29045;BME280;16133;49.486;12.176;2023-05-14T02:01:11;97264.44;;;5.04;100.00
29045;BME280;16133;49.486;12.176;2023-05-14T02:03:36;97272.63;;;5.01;100.00
29045;BME280;16133;49.486;12.176;2023-05-14T02:06:02;97274.03;;;4.96;100.00
29045;BME280;16133;49.486;12.176;2023-05-14T02:08:27;97270.03;;;4.92;100.00
29045;BME280;16133;49.486;12.176;2023-05-14T02:10:52;97266.88;;;4.88;100.00
29045;BME280;16133;49.486;12.176;2023-05-14T02:13:18;97274.38;;;4.83;100.00
29045;BME280;16133;49.486;12.176;2023-05-14T02:15:43;97280.31;;;4.85;100.00
29045;BME280;16133;49.486;12.176;2023-05-14T02:18:08;97276.56;;;4.88;100.00
29045;BME280;16133;49.486;12.176;2023-05-14T02:20:34;97265.00;;;4.80;100.00
29045;BME280;16133;49.486;12.176;2023-05-14T02:22:59;97259.22;;;4.77;100.00
29045;BME280;16133;49.486;12.176;2023-05-14T02:25:25;97248.81;;;4.75;100.00
29045;BME280;16133;49.486;12.176;2023-05-14T02:27:50;97243.63;;;4.66;100.00
29045;BME280;16133;49.486;12.176;2023-05-14T02:30:16;97249.28;;;4.71;100.00
29045;BME280;16133;49.486;12.176;2023-05-14T02:32:41;97244.03;;;4.71;100.00
29045;BME280;16133;49.486;12.176;2023-05-14T02:35:07;97241.69;;;4.68;100.00
29045;BME280;16133;49.486;12.176;2023-05-14T02:37:32;97239.06;;;4.68;100.00
29045;BME280;16133;49.486;12.176;2023-05-14T02:39:59;97231.34;;;4.66;100.00
29045;BME280;16133;49.486;12.176;2023-05-14T02:42:24;97223.75;;;4.63;100.00
29045;BME280;16133;49.486;12.176;2023-05-14T02:44:50;97218.63;;;4.62;100.00
29045;BME280;16133;49.486;12.176;2023-05-14T02:47:16;97215.88;;;4.63;100.00
29045;BME280;16133;49.486;12.176;2023-05-14T02:49:42;97215.03;;;4.63;100.00
29045;BME280;16133;49.486;12.176;2023-05-14T02:52:07;97207.59;;;4.58;100.00
29045;BME280;16133;49.486;12.176;2023-05-14T02:54:33;97204.44;;;4.55;100.00
29045;BME280;16133;49.486;12.176;2023-05-14T02:56:58;97203.47;;;4.56;100.00
29045;BME280;16133;49.486;12.176;2023-05-14T02:59:23;97207.06;;;4.55;100.00
29045;BME280;16133;49.486;12.176;2023-05-14T03:01:49;97195.72;;;4.54;100.00
29045;BME280;16133;49.486;12.176;2023-05-14T03:04:14;97205.00;;;4.49;100.00
29045;BME280;16133;49.486;12.176;2023-05-14T03:06:40;97202.69;;;4.46;100.00
29045;BME280;16133;49.486;12.176;2023-05-14T03:09:05;97204.34;;;4.47;100.00
29045;BME280;16133;49.486;12.176;2023-05-14T03:11:31;97200.56;;;4.49;100.00
29045;BME280;16133;49.486;12.176;2023-05-14T03:13:57;97194.78;;;4.46;100.00
29045;BME280;16133;49.486;12.176;2023-05-14T03:16:22;97191.34;;;4.45;100.00
29045;BME280;16133;49.486;12.176;2023-05-14T03:18:47;97186.25;;;4.44;100.00
29045;BME280;16133;49.486;12.176;2023-05-14T03:21:13;97188.19;;;4.42;100.00
29045;BME280;16133;49.486;12.176;2023-05-14T03:23:38;97189.84;;;4.43;100.00
29045;BME280;16133;49.486;12.176;2023-05-14T03:26:04;97187.75;;;4.46;100.00
29045;BME280;16133;49.486;12.176;2023-05-14T03:28:29;97179.97;;;4.54;100.00
29045;BME280;16133;49.486;12.176;2023-05-14T03:30:55;97157.13;;;4.55;100.00
29045;BME280;16133;49.486;12.176;2023-05-14T03:33:20;97148.81;;;4.59;100.00
29045;BME280;16133;49.486;12.176;2023-05-14T03:35:46;97146.41;;;4.66;100.00
29045;BME280;16133;49.486;12.176;2023-05-14T03:38:12;97130.34;;;4.69;100.00
29045;BME280;16133;49.486;12.176;2023-05-14T03:40:37;97112.47;;;4.72;100.00
29045;BME280;16133;49.486;12.176;2023-05-14T03:43:02;97115.94;;;4.73;100.00
29045;BME280;16133;49.486;12.176;2023-05-14T03:45:28;97099.84;;;4.76;100.00
29045;BME280;16133;49.486;12.176;2023-05-14T03:47:54;97099.56;;;4.79;100.00
29045;BME280;16133;49.486;12.176;2023-05-14T03:50:20;97081.09;;;4.71;100.00
29045;BME280;16133;49.486;12.176;2023-05-14T03:52:45;97089.66;;;4.73;100.00
29045;BME280;16133;49.486;12.176;2023-05-14T03:55:11;97096.25;;;4.77;100.00
29045;BME280;16133;49.486;12.176;2023-05-14T03:57:36;97099.56;;;4.79;100.00
29045;BME280;16133;49.486;12.176;2023-05-14T04:00:03;97088.13;;;4.88;100.00
29045;BME280;16133;49.486;12.176;2023-05-14T04:02:28;97088.56;;;5.01;100.00
29045;BME280;16133;49.486;12.176;2023-05-14T04:04:54;97080.22;;;5.06;100.00
29045;BME280;16133;49.486;12.176;2023-05-14T04:07:19;97068.25;;;5.11;100.00
29045;BME280;16133;49.486;12.176;2023-05-14T04:09:44;97061.06;;;5.13;100.00
29045;BME280;16133;49.486;12.176;2023-05-14T04:12:10;97065.38;;;5.22;100.00
29045;BME280;16133;49.486;12.176;2023-05-14T04:14:35;97060.31;;;5.29;100.00
29045;BME280;16133;49.486;12.176;2023-05-14T04:17:01;97056.91;;;5.37;100.00
29045;BME280;16133;49.486;12.176;2023-05-14T04:19:26;97060.91;;;5.49;100.00
29045;BME280;16133;49.486;12.176;2023-05-14T04:21:51;97045.84;;;5.59;100.00
29045;BME280;16133;49.486;12.176;2023-05-14T04:24:17;97040.81;;;5.73;100.00
29045;BME280;16133;49.486;12.176;2023-05-14T04:26:42;97031.88;;;5.92;100.00
29045;BME280;16133;49.486;12.176;2023-05-14T04:29:07;97036.22;;;6.09;100.00
29045;BME280;16133;49.486;12.176;2023-05-14T04:31:33;97022.56;;;6.22;100.00
29045;BME280;16133;49.486;12.176;2023-05-14T04:33:58;97025.38;;;6.37;100.00
29045;BME280;16133;49.486;12.176;2023-05-14T04:36:23;97021.78;;;6.54;100.00
29045;BME280;16133;49.486;12.176;2023-05-14T04:38:49;97010.72;;;6.91;100.00
29045;BME280;16133;49.486;12.176;2023-05-14T04:41:14;96998.09;;;7.41;100.00
29045;BME280;16133;49.486;12.176;2023-05-14T04:43:40;96987.03;;;7.85;100.00
29045;BME280;16133;49.486;12.176;2023-05-14T04:46:05;96981.28;;;8.12;100.00
29045;BME280;16133;49.486;12.176;2023-05-14T04:48:30;96989.94;;;8.29;100.00
29045;BME280;16133;49.486;12.176;2023-05-14T04:50:56;96985.78;;;8.57;100.00
29045;BME280;16133;49.486;12.176;2023-05-14T04:53:21;96982.72;;;9.35;100.00
29045;BME280;16133;49.486;12.176;2023-05-14T04:55:47;96995.47;;;10.40;100.00
29045;BME280;16133;49.486;12.176;2023-05-14T04:58:12;97054.03;;;11.58;100.00
29045;BME280;16133;49.486;12.176;2023-05-14T05:00:37;97206.41;;;12.89;100.00
29045;BME280;16133;49.486;12.176;2023-05-14T05:03:04;97320.34;;;14.09;100.00
29045;BME280;16133;49.486;12.176;2023-05-14T05:05:29;97352.97;;;15.03;100.00
29045;BME280;16133;49.486;12.176;2023-05-14T05:07:55;97358.44;;;15.92;100.00
29045;BME280;16133;49.486;12.176;2023-05-14T05:10:20;97364.88;;;16.78;98.06
29045;BME280;16133;49.486;12.176;2023-05-14T05:12:45;97368.81;;;17.55;92.22
29045;BME280;16133;49.486;12.176;2023-05-14T05:15:11;97365.53;;;18.19;80.59
29045;BME280;16133;49.486;12.176;2023-05-14T05:17:36;97361.34;;;18.76;76.67
29045;BME280;16133;49.486;12.176;2023-05-14T05:20:02;97353.41;;;19.39;71.58
29045;BME280;16133;49.486;12.176;2023-05-14T05:22:29;97365.81;;;19.92;68.04
29045;BME280;16133;49.486;12.176;2023-05-14T05:24:55;97367.84;;;20.41;64.26
29045;BME280;16133;49.486;12.176;2023-05-14T05:27:24;97366.13;;;20.85;60.24
29045;BME280;16133;49.486;12.176;2023-05-14T05:29:50;97359.50;;;21.26;56.32
29045;BME280;16133;49.486;12.176;2023-05-14T05:32:15;97361.09;;;21.44;54.42
29045;BME280;16133;49.486;12.176;2023-05-14T05:34:40;97364.38;;;21.68;53.51
29045;BME280;16133;49.486;12.176;2023-05-14T05:37:06;97360.44;;;21.97;51.99
29045;BME280;16133;49.486;12.176;2023-05-14T05:39:33;97367.59;;;22.35;51.09
29045;BME280;16133;49.486;12.176;2023-05-14T05:41:59;97365.84;;;22.77;50.63
29045;BME280;16133;49.486;12.176;2023-05-14T05:44:24;97366.13;;;23.13;48.27
29045;BME280;16133;49.486;12.176;2023-05-14T05:46:50;97359.69;;;23.24;47.82
29045;BME280;16133;49.486;12.176;2023-05-14T05:49:15;97348.03;;;23.18;46.86
29045;BME280;16133;49.486;12.176;2023-05-14T05:51:40;97358.72;;;22.98;45.49
29045;BME280;16133;49.486;12.176;2023-05-14T05:54:06;97358.69;;;22.66;47.35
29045;BME280;16133;49.486;12.176;2023-05-14T05:56:31;97359.53;;;22.13;46.32
29045;BME280;16133;49.486;12.176;2023-05-14T05:58:56;97362.47;;;22.33;47.60
29045;BME280;16133;49.486;12.176;2023-05-14T06:01:22;97358.53;;;22.73;46.07
29045;BME280;16133;49.486;12.176;2023-05-14T06:03:47;97359.25;;;23.00;46.70
29045;BME280;16133;49.486;12.176;2023-05-14T06:06:13;97356.66;;;23.10;45.11
29045;BME280;16133;49.486;12.176;2023-05-14T06:08:39;97356.25;;;22.92;45.82
29045;BME280;16133;49.486;12.176;2023-05-14T06:11:04;97356.53;;;22.95;45.56
29045;BME280;16133;49.486;12.176;2023-05-14T06:13:30;97349.91;;;22.76;45.26
29045;BME280;16133;49.486;12.176;2023-05-14T06:15:55;97353.00;;;22.36;45.82
29045;BME280;16133;49.486;12.176;2023-05-14T06:18:20;97362.19;;;21.86;47.16
29045;BME280;16133;49.486;12.176;2023-05-14T06:20:46;97363.34;;;21.30;48.99
29045;BME280;16133;49.486;12.176;2023-05-14T06:23:11;97355.03;;;20.65;50.05
29045;BME280;16133;49.486;12.176;2023-05-14T06:25:37;97347.19;;;19.90;50.10
29045;BME280;16133;49.486;12.176;2023-05-14T06:28:02;97355.28;;;19.50;52.60
29045;BME280;16133;49.486;12.176;2023-05-14T06:30:27;97354.59;;;19.20;53.68
29045;BME280;16133;49.486;12.176;2023-05-14T06:32:53;97358.31;;;18.73;53.57
29045;BME280;16133;49.486;12.176;2023-05-14T06:35:18;97355.78;;;18.06;55.29
29045;BME280;16133;49.486;12.176;2023-05-14T06:37:44;97361.19;;;17.15;56.96
29045;BME280;16133;49.486;12.176;2023-05-14T06:40:11;97356.03;;;16.96;58.12
29045;BME280;16133;49.486;12.176;2023-05-14T06:42:36;97360.66;;;16.89;59.94
29045;BME280;16133;49.486;12.176;2023-05-14T06:45:02;97354.44;;;16.70;61.04
29045;BME280;16133;49.486;12.176;2023-05-14T06:47:27;97349.38;;;16.55;60.54
29045;BME280;16133;49.486;12.176;2023-05-14T06:49:53;97356.03;;;16.15;61.67
29045;BME280;16133;49.486;12.176;2023-05-14T06:52:19;97347.28;;;15.95;63.17
29045;BME280;16133;49.486;12.176;2023-05-14T06:54:45;97351.47;;;15.84;64.23
29045;BME280;16133;49.486;12.176;2023-05-14T06:57:10;97352.44;;;15.58;65.27
29045;BME280;16133;49.486;12.176;2023-05-14T06:59:35;97351.94;;;15.74;65.18
29045;BME280;16133;49.486;12.176;2023-05-14T07:02:01;97345.38;;;15.70;65.75
29045;BME280;16133;49.486;12.176;2023-05-14T07:04:27;97347.81;;;15.78;65.30
29045;BME280;16133;49.486;12.176;2023-05-14T07:06:52;97349.44;;;15.79;65.82
29045;BME280;16133;49.486;12.176;2023-05-14T07:09:17;97352.75;;;15.82;65.96
29045;BME280;16133;49.486;12.176;2023-05-14T07:11:43;97348.22;;;15.75;66.49
29045;BME280;16133;49.486;12.176;2023-05-14T07:14:08;97347.19;;;15.76;66.31
29045;BME280;16133;49.486;12.176;2023-05-14T07:16:34;97351.94;;;15.74;66.73
29045;BME280;16133;49.486;12.176;2023-05-14T07:18:59;97348.41;;;15.81;66.86
29045;BME280;16133;49.486;12.176;2023-05-14T07:21:28;97342.88;;;15.75;67.51
29045;BME280;16133;49.486;12.176;2023-05-14T07:23:53;97342.53;;;15.65;66.82
29045;BME280;16133;49.486;12.176;2023-05-14T07:26:18;97339.47;;;15.49;67.90
29045;BME280;16133;49.486;12.176;2023-05-14T07:28:44;97340.13;;;15.44;67.34
29045;BME280;16133;49.486;12.176;2023-05-14T07:31:09;97344.50;;;15.19;68.81
29045;BME280;16133;49.486;12.176;2023-05-14T07:33:35;97339.00;;;15.01;69.72
29045;BME280;16133;49.486;12.176;2023-05-14T07:36:00;97343.34;;;14.89;70.29
29045;BME280;16133;49.486;12.176;2023-05-14T07:38:26;97340.25;;;14.92;70.84
29045;BME280;16133;49.486;12.176;2023-05-14T07:40:51;97331.00;;;15.01;71.92
29045;BME280;16133;49.486;12.176;2023-05-14T07:43:17;97334.44;;;15.14;71.23
29045;BME280;16133;49.486;12.176;2023-05-14T07:45:42;97336.53;;;15.12;70.81
29045;BME280;16133;49.486;12.176;2023-05-14T07:48:07;97338.34;;;15.25;70.80
29045;BME280;16133;49.486;12.176;2023-05-14T07:50:33;97332.50;;;15.41;70.99
29045;BME280;16133;49.486;12.176;2023-05-14T07:52:58;97331.22;;;15.63;70.37
29045;BME280;16133;49.486;12.176;2023-05-14T07:55:23;97331.78;;;15.78;69.66
29045;BME280;16133;49.486;12.176;2023-05-14T07:57:49;97327.19;;;15.86;67.89
29045;BME280;16133;49.486;12.176;2023-05-14T08:00:14;97333.06;;;16.01;68.52
29045;BME280;16133;49.486;12.176;2023-05-14T08:02:41;97325.28;;;16.24;68.19
29045;BME280;16133;49.486;12.176;2023-05-14T08:05:07;97329.59;;;16.56;66.63
29045;BME280;16133;49.486;12.176;2023-05-14T08:07:33;97331.81;;;16.84;65.79
29045;BME280;16133;49.486;12.176;2023-05-14T08:09:58;97323.75;;;17.09;64.76
29045;BME280;16133;49.486;12.176;2023-05-14T08:12:24;97331.78;;;17.45;64.82
29045;BME280;16133;49.486;12.176;2023-05-14T08:14:51;97334.59;;;17.68;62.07
29045;BME280;16133;49.486;12.176;2023-05-14T08:17:16;97330.28;;;17.86;60.94
29045;BME280;16133;49.486;12.176;2023-05-14T08:19:42;97327.53;;;18.04;62.01
29045;BME280;16133;49.486;12.176;2023-05-14T08:22:07;97329.22;;;18.17;62.08
29045;BME280;16133;49.486;12.176;2023-05-14T08:24:32;97319.91;;;18.42;61.61
29045;BME280;16133;49.486;12.176;2023-05-14T08:26:58;97315.19;;;18.68;59.00
29045;BME280;16133;49.486;12.176;2023-05-14T08:29:23;97308.97;;;18.90;58.15
29045;BME280;16133;49.486;12.176;2023-05-14T08:31:50;97310.38;;;19.16;55.94
29045;BME280;16133;49.486;12.176;2023-05-14T08:34:16;97301.47;;;19.27;55.14
29045;BME280;16133;49.486;12.176;2023-05-14T08:36:41;97301.16;;;19.64;54.74
29045;BME280;16133;49.486;12.176;2023-05-14T08:39:06;97297.31;;;19.88;54.79
29045;BME280;16133;49.486;12.176;2023-05-14T08:41:32;97291.16;;;20.04;54.05
29045;BME280;16133;49.486;12.176;2023-05-14T08:44:14;97281.09;;;20.16;53.84
29045;BME280;16133;49.486;12.176;2023-05-14T08:46:40;97290.50;;;20.14;54.14
29045;BME280;16133;49.486;12.176;2023-05-14T08:51:37;97280.69;;;19.91;53.89
29045;BME280;16133;49.486;12.176;2023-05-14T08:54:03;97277.47;;;19.77;54.67
29045;BME280;16133;49.486;12.176;2023-05-14T08:56:31;97265.28;;;19.75;55.10
29045;BME280;16133;49.486;12.176;2023-05-14T08:58:57;97268.91;;;19.97;55.24
29045;BME280;16133;49.486;12.176;2023-05-14T09:01:24;97261.47;;;20.32;53.27
29045;BME280;16133;49.486;12.176;2023-05-14T09:03:50;97269.91;;;20.52;51.69
29045;BME280;16133;49.486;12.176;2023-05-14T09:06:17;97269.47;;;20.77;51.71
29045;BME280;16133;49.486;12.176;2023-05-14T09:08:43;97255.53;;;21.02;50.88
29045;BME280;16133;49.486;12.176;2023-05-14T09:11:09;97266.50;;;21.34;48.86
29045;BME280;16133;49.486;12.176;2023-05-14T09:13:38;97270.19;;;21.50;48.92
29045;BME280;16133;49.486;12.176;2023-05-14T09:16:03;97267.59;;;21.60;47.52
29045;BME280;16133;49.486;12.176;2023-05-14T09:18:29;97260.50;;;21.32;47.68
29045;BME280;16133;49.486;12.176;2023-05-14T09:20:56;97266.81;;;20.99;47.61
29045;BME280;16133;49.486;12.176;2023-05-14T09:23:24;97264.09;;;20.77;48.41
29045;BME280;16133;49.486;12.176;2023-05-14T09:25:50;97258.97;;;20.97;49.08
29045;BME280;16133;49.486;12.176;2023-05-14T09:28:16;97258.41;;;21.34;48.57
29045;BME280;16133;49.486;12.176;2023-05-14T09:30:49;97258.53;;;21.71;48.29
29045;BME280;16133;49.486;12.176;2023-05-14T09:33:25;97257.91;;;22.12;47.68
29045;BME280;16133;49.486;12.176;2023-05-14T09:35:55;97251.44;;;22.13;45.24
29045;BME280;16133;49.486;12.176;2023-05-14T09:38:26;97243.19;;;21.98;45.77
29045;BME280;16133;49.486;12.176;2023-05-14T09:40:56;97245.78;;;21.66;46.14
29045;BME280;16133;49.486;12.176;2023-05-14T09:43:21;97241.19;;;21.62;45.96
29045;BME280;16133;49.486;12.176;2023-05-14T09:45:47;97240.69;;;21.70;45.85
29045;BME280;16133;49.486;12.176;2023-05-14T09:48:12;97243.50;;;21.53;47.02
29045;BME280;16133;49.486;12.176;2023-05-14T09:50:45;97234.94;;;21.34;48.31
29045;BME280;16133;49.486;12.176;2023-05-14T09:53:12;97235.28;;;21.21;49.30
29045;BME280;16133;49.486;12.176;2023-05-14T09:55:38;97244.22;;;21.05;48.77
29045;BME280;16133;49.486;12.176;2023-05-14T09:58:03;97242.28;;;20.29;49.24
29045;BME280;16133;49.486;12.176;2023-05-14T10:00:31;97244.78;;;19.85;50.93
29045;BME280;16133;49.486;12.176;2023-05-14T10:02:57;97240.44;;;19.16;53.06
29045;BME280;16133;49.486;12.176;2023-05-14T10:05:22;97238.13;;;19.08;53.88
29045;BME280;16133;49.486;12.176;2023-05-14T10:07:50;97243.19;;;18.81;54.79
29045;BME280;16133;49.486;12.176;2023-05-14T10:10:18;97239.22;;;18.84;54.36
29045;BME280;16133;49.486;12.176;2023-05-14T10:12:52;97243.28;;;18.98;54.45
29045;BME280;16133;49.486;12.176;2023-05-14T10:15:39;97240.94;;;18.90;55.27
29045;BME280;16133;49.486;12.176;2023-05-14T10:18:11;97251.75;;;18.55;55.92
29045;BME280;16133;49.486;12.176;2023-05-14T10:20:37;97237.69;;;18.41;56.35
29045;BME280;16133;49.486;12.176;2023-05-14T10:23:05;97241.66;;;18.27;57.45
29045;BME280;16133;49.486;12.176;2023-05-14T10:25:31;97233.94;;;18.19;57.05
29045;BME280;16133;49.486;12.176;2023-05-14T10:27:57;97233.69;;;18.21;56.04
29045;BME280;16133;49.486;12.176;2023-05-14T10:30:23;97227.38;;;18.15;56.98
29045;BME280;16133;49.486;12.176;2023-05-14T10:33:08;97226.22;;;18.34;56.85
29045;BME280;16133;49.486;12.176;2023-05-14T10:38:22;97219.44;;;18.90;54.86
29045;BME280;16133;49.486;12.176;2023-05-14T10:40:47;97218.38;;;19.02;55.56
29045;BME280;16133;49.486;12.176;2023-05-14T10:43:13;97213.22;;;19.13;54.97
29045;BME280;16133;49.486;12.176;2023-05-14T10:45:42;97212.72;;;19.55;53.73
29045;BME280;16133;49.486;12.176;2023-05-14T10:48:09;97217.84;;;20.02;53.25
29045;BME280;16133;49.486;12.176;2023-05-14T10:50:34;97217.03;;;20.18;52.31
29045;BME280;16133;49.486;12.176;2023-05-14T10:53:00;97215.34;;;20.29;51.44
29045;BME280;16133;49.486;12.176;2023-05-14T10:55:26;97212.47;;;20.02;52.34
29045;BME280;16133;49.486;12.176;2023-05-14T10:57:52;97218.66;;;20.02;51.65
29045;BME280;16133;49.486;12.176;2023-05-14T11:00:17;97212.84;;;19.94;52.92
29045;BME280;16133;49.486;12.176;2023-05-14T11:02:43;97202.66;;;20.13;51.79
29045;BME280;16133;49.486;12.176;2023-05-14T11:05:15;97199.56;;;20.21;52.34
29045;BME280;16133;49.486;12.176;2023-05-14T11:07:46;97209.75;;;20.02;52.16
29045;BME280;16133;49.486;12.176;2023-05-14T11:10:16;97204.28;;;19.80;52.67
29045;BME280;16133;49.486;12.176;2023-05-14T11:12:49;97192.88;;;19.45;54.01
29045;BME280;16133;49.486;12.176;2023-05-14T11:15:22;97187.91;;;19.14;54.02
29045;BME280;16133;49.486;12.176;2023-05-14T11:17:49;97188.50;;;18.64;55.60
29045;BME280;16133;49.486;12.176;2023-05-14T11:20:15;97181.84;;;18.43;56.55
29045;BME280;16133;49.486;12.176;2023-05-14T11:22:42;97184.63;;;18.48;57.06
29045;BME280;16133;49.486;12.176;2023-05-14T11:25:08;97183.03;;;18.47;57.31
29045;BME280;16133;49.486;12.176;2023-05-14T11:27:37;97179.19;;;18.55;55.86
29045;BME280;16133;49.486;12.176;2023-05-14T11:30:03;97168.03;;;18.75;56.62
29045;BME280;16133;49.486;12.176;2023-05-14T11:32:32;97175.59;;;19.01;55.46
29045;BME280;16133;49.486;12.176;2023-05-14T11:34:58;97176.34;;;19.13;55.17
29045;BME280;16133;49.486;12.176;2023-05-14T11:37:23;97172.72;;;19.19;54.39
29045;BME280;16133;49.486;12.176;2023-05-14T11:39:50;97175.66;;;19.06;55.40
29045;BME280;16133;49.486;12.176;2023-05-14T11:42:17;97175.69;;;18.94;54.76
29045;BME280;16133;49.486;12.176;2023-05-14T11:44:48;97170.84;;;18.68;55.46
29045;BME280;16133;49.486;12.176;2023-05-14T11:47:15;97172.53;;;18.57;56.27
29045;BME280;16133;49.486;12.176;2023-05-14T11:49:41;97169.72;;;18.52;55.71
29045;BME280;16133;49.486;12.176;2023-05-14T11:52:08;97176.50;;;18.55;55.88
29045;BME280;16133;49.486;12.176;2023-05-14T11:54:40;97167.81;;;18.41;56.24
29045;BME280;16133;49.486;12.176;2023-05-14T11:57:09;97166.19;;;18.29;56.09
29045;BME280;16133;49.486;12.176;2023-05-14T11:59:35;97162.72;;;18.17;55.77
29045;BME280;16133;49.486;12.176;2023-05-14T12:02:01;97167.34;;;18.21;55.51
29045;BME280;16133;49.486;12.176;2023-05-14T12:04:27;97161.63;;;18.29;56.99
29045;BME280;16133;49.486;12.176;2023-05-14T12:06:53;97157.44;;;18.22;57.66
29045;BME280;16133;49.486;12.176;2023-05-14T12:09:20;97155.44;;;18.40;58.04
29045;BME280;16133;49.486;12.176;2023-05-14T12:11:47;97159.66;;;18.59;57.87
29045;BME280;16133;49.486;12.176;2023-05-14T12:14:17;97144.91;;;18.74;56.71
29045;BME280;16133;49.486;12.176;2023-05-14T12:16:43;97147.41;;;19.03;56.47
29045;BME280;16133;49.486;12.176;2023-05-14T12:19:10;97141.59;;;19.23;54.93
29045;BME280;16133;49.486;12.176;2023-05-14T12:21:38;97153.31;;;19.45;54.55
29045;BME280;16133;49.486;12.176;2023-05-14T12:24:08;97149.25;;;19.43;54.61
29045;BME280;16133;49.486;12.176;2023-05-14T12:26:33;97146.06;;;19.46;55.49
29045;BME280;16133;49.486;12.176;2023-05-14T12:29:00;97147.97;;;19.34;56.02
29045;BME280;16133;49.486;12.176;2023-05-14T12:31:33;97143.50;;;19.39;55.15
29045;BME280;16133;49.486;12.176;2023-05-14T12:33:59;97132.16;;;19.37;55.32
29045;BME280;16133;49.486;12.176;2023-05-14T12:36:24;97139.88;;;19.45;55.08
29045;BME280;16133;49.486;12.176;2023-05-14T12:38:57;97136.88;;;19.75;55.38
29045;BME280;16133;49.486;12.176;2023-05-14T12:41:22;97137.84;;;19.86;54.83
29045;BME280;16133;49.486;12.176;2023-05-14T12:43:48;97151.56;;;20.01;55.25
29045;BME280;16133;49.486;12.176;2023-05-14T12:46:14;97129.59;;;20.26;53.35
29045;BME280;16133;49.486;12.176;2023-05-14T12:48:40;97137.53;;;20.32;53.38
29045;BME280;16133;49.486;12.176;2023-05-14T12:51:05;97129.22;;;20.34;54.03
29045;BME280;16133;49.486;12.176;2023-05-14T12:53:32;97134.06;;;20.54;52.77
29045;BME280;16133;49.486;12.176;2023-05-14T12:55:58;97133.44;;;20.46;52.83
29045;BME280;16133;49.486;12.176;2023-05-14T12:58:24;97127.63;;;20.21;52.46